sensor_id;sensor_type;location;lat;lon;timestamp;P1;durP1;ratioP1;P2;durP2;ratioP2
46334;SDS011;32051;48.882;9.210;2022-07-10T00:02:11;14.85;;;3.50;;
46334;SDS011;32051;48.882;9.210;2022-07-10T00:04:36;4.57;;;4.13;;
46334;SDS011;32051;48.882;9.210;2022-07-10T00:07:02;6.18;;;3.08;;
46334;SDS011;32051;48.882;9.210;2022-07-10T00:09:29;4.15;;;3.25;;
46334;SDS011;32051;48.882;9.210;2022-07-10T00:11:55;3.65;;;3.45;;
46334;SDS011;32051;48.882;9.210;2022-07-10T00:14:21;4.70;;;3.47;;
46334;SDS011;32051;48.882;9.210;2022-07-10T00:16:46;9.55;;;4.43;;
46334;SDS011;32051;48.882;9.210;2022-07-10T00:19:12;8.55;;;3.72;;
46334;SDS011;32051;48.882;9.210;2022-07-10T00:21:38;3.53;;;3.22;;
46334;SDS011;32051;48.882;9.210;2022-07-10T00:24:04;3.67;;;3.38;;
46334;SDS011;32051;48.882;9.210;2022-07-10T00:26:30;3.85;;;3.50;;
46334;SDS011;32051;48.882;9.210;2022-07-10T00:28:56;3.60;;;3.40;;
46334;SDS011;32051;48.882;9.210;2022-07-10T00:31:21;9.02;;;3.95;;
46334;SDS011;32051;48.882;9.210;2022-07-10T00:33:47;5.03;;;4.13;;
46334;SDS011;32051;48.882;9.210;2022-07-10T00:36:13;4.45;;;3.90;;
46334;SDS011;32051;48.882;9.210;2022-07-10T00:38:39;5.85;;;4.13;;
46334;SDS011;32051;48.882;9.210;2022-07-10T00:41:05;5.00;;;4.60;;
46334;SDS011;32051;48.882;9.210;2022-07-10T00:44:16;5.95;;;4.38;;
46334;SDS011;32051;48.882;9.210;2022-07-10T00:46:22;9.98;;;4.60;;
46334;SDS011;32051;48.882;9.210;2022-07-10T00:48:48;4.35;;;4.05;;
46334;SDS011;32051;48.882;9.210;2022-07-10T00:51:18;4.38;;;3.25;;
46334;SDS011;32051;48.882;9.210;2022-07-10T00:53:48;3.60;;;3.40;;
46334;SDS011;32051;48.882;9.210;2022-07-10T00:56:15;3.20;;;3.00;;
46334;SDS011;32051;48.882;9.210;2022-07-10T00:58:46;3.60;;;3.17;;
46334;SDS011;32051;48.882;9.210;2022-07-10T01:01:12;6.75;;;3.00;;
46334;SDS011;32051;48.882;9.210;2022-07-10T01:03:39;3.88;;;3.58;;
46334;SDS011;32051;48.882;9.210;2022-07-10T01:06:05;3.80;;;3.55;;
46334;SDS011;32051;48.882;9.210;2022-07-10T01:08:32;5.05;;;3.17;;
46334;SDS011;32051;48.882;9.210;2022-07-10T01:10:58;4.05;;;3.58;;
46334;SDS011;32051;48.882;9.210;2022-07-10T01:13:24;3.08;;;2.83;;
46334;SDS011;32051;48.882;9.210;2022-07-10T01:15:49;3.17;;;2.92;;
46334;SDS011;32051;48.882;9.210;2022-07-10T01:18:16;4.57;;;3.30;;
46334;SDS011;32051;48.882;9.210;2022-07-10T01:20:42;4.75;;;3.45;;
46334;SDS011;32051;48.882;9.210;2022-07-10T01:23:07;7.00;;;3.17;;
46334;SDS011;32051;48.882;9.210;2022-07-10T01:25:33;3.20;;;3.00;;
46334;SDS011;32051;48.882;9.210;2022-07-10T01:27:59;4.15;;;3.85;;
46334;SDS011;32051;48.882;9.210;2022-07-10T01:30:25;2.95;;;2.72;;
46334;SDS011;32051;48.882;9.210;2022-07-10T01:32:51;10.13;;;2.78;;
46334;SDS011;32051;48.882;9.210;2022-07-10T01:35:17;8.35;;;3.50;;
46334;SDS011;32051;48.882;9.210;2022-07-10T01:37:43;4.13;;;3.78;;
46334;SDS011;32051;48.882;9.210;2022-07-10T01:40:10;3.92;;;3.63;;
46334;SDS011;32051;48.882;9.210;2022-07-10T01:42:36;3.72;;;3.50;;
46334;SDS011;32051;48.882;9.210;2022-07-10T01:45:03;4.32;;;4.03;;
46334;SDS011;32051;48.882;9.210;2022-07-10T01:47:33;8.10;;;4.57;;
46334;SDS011;32051;48.882;9.210;2022-07-10T01:49:59;3.80;;;3.60;;
46334;SDS011;32051;48.882;9.210;2022-07-10T01:52:25;10.48;;;4.47;;
46334;SDS011;32051;48.882;9.210;2022-07-10T01:54:50;4.28;;;3.75;;
46334;SDS011;32051;48.882;9.210;2022-07-10T01:57:16;4.30;;;4.00;;
46334;SDS011;32051;48.882;9.210;2022-07-10T01:59:43;4.47;;;4.07;;
46334;SDS011;32051;48.882;9.210;2022-07-10T02:02:09;3.65;;;3.45;;
46334;SDS011;32051;48.882;9.210;2022-07-10T02:04:35;4.03;;;3.83;;
46334;SDS011;32051;48.882;9.210;2022-07-10T02:07:17;3.65;;;3.42;;
46334;SDS011;32051;48.882;9.210;2022-07-10T02:09:44;8.50;;;3.75;;
46334;SDS011;32051;48.882;9.210;2022-07-10T02:12:11;3.88;;;3.53;;
46334;SDS011;32051;48.882;9.210;2022-07-10T02:14:38;5.15;;;3.55;;
46334;SDS011;32051;48.882;9.210;2022-07-10T02:17:04;3.45;;;3.25;;
46334;SDS011;32051;48.882;9.210;2022-07-10T02:19:31;8.40;;;4.13;;
46334;SDS011;32051;48.882;9.210;2022-07-10T02:21:57;3.20;;;3.00;;
46334;SDS011;32051;48.882;9.210;2022-07-10T02:24:22;3.97;;;3.78;;
46334;SDS011;32051;48.882;9.210;2022-07-10T02:26:48;4.32;;;3.90;;
46334;SDS011;32051;48.882;9.210;2022-07-10T02:29:14;3.92;;;3.10;;
46334;SDS011;32051;48.882;9.210;2022-07-10T02:31:40;3.78;;;3.55;;
46334;SDS011;32051;48.882;9.210;2022-07-10T02:34:10;7.70;;;4.90;;
46334;SDS011;32051;48.882;9.210;2022-07-10T02:36:37;7.75;;;4.00;;
46334;SDS011;32051;48.882;9.210;2022-07-10T02:39:06;3.78;;;3.47;;
46334;SDS011;32051;48.882;9.210;2022-07-10T02:41:33;5.57;;;5.07;;
46334;SDS011;32051;48.882;9.210;2022-07-10T02:44:00;5.10;;;4.80;;
46334;SDS011;32051;48.882;9.210;2022-07-10T02:46:26;5.85;;;5.40;;
46334;SDS011;32051;48.882;9.210;2022-07-10T02:48:51;5.72;;;5.03;;
46334;SDS011;32051;48.882;9.210;2022-07-10T02:51:17;6.25;;;5.60;;
46334;SDS011;32051;48.882;9.210;2022-07-10T02:53:43;5.57;;;5.07;;
46334;SDS011;32051;48.882;9.210;2022-07-10T02:56:08;4.97;;;4.57;;
46334;SDS011;32051;48.882;9.210;2022-07-10T02:58:34;6.13;;;5.70;;
46334;SDS011;32051;48.882;9.210;2022-07-10T03:01:00;6.30;;;5.20;;
46334;SDS011;32051;48.882;9.210;2022-07-10T03:03:26;10.32;;;5.03;;
46334;SDS011;32051;48.882;9.210;2022-07-10T03:05:51;5.45;;;5.03;;
46334;SDS011;32051;48.882;9.210;2022-07-10T03:08:17;5.45;;;5.00;;
46334;SDS011;32051;48.882;9.210;2022-07-10T03:10:43;5.95;;;5.38;;
46334;SDS011;32051;48.882;9.210;2022-07-10T03:13:09;4.82;;;4.53;;
46334;SDS011;32051;48.882;9.210;2022-07-10T03:15:35;10.35;;;5.35;;
46334;SDS011;32051;48.882;9.210;2022-07-10T03:18:00;5.03;;;4.72;;
46334;SDS011;32051;48.882;9.210;2022-07-10T03:20:26;5.30;;;4.72;;
46334;SDS011;32051;48.882;9.210;2022-07-10T03:22:52;4.85;;;4.32;;
46334;SDS011;32051;48.882;9.210;2022-07-10T03:25:17;5.18;;;4.88;;
46334;SDS011;32051;48.882;9.210;2022-07-10T03:27:43;5.30;;;5.00;;
46334;SDS011;32051;48.882;9.210;2022-07-10T03:30:09;11.50;;;5.18;;
46334;SDS011;32051;48.882;9.210;2022-07-10T03:32:35;5.63;;;5.32;;
46334;SDS011;32051;48.882;9.210;2022-07-10T03:35:01;5.90;;;5.40;;
46334;SDS011;32051;48.882;9.210;2022-07-10T03:37:27;5.88;;;5.47;;
46334;SDS011;32051;48.882;9.210;2022-07-10T03:39:53;5.05;;;4.65;;
46334;SDS011;32051;48.882;9.210;2022-07-10T03:42:18;8.52;;;4.30;;
46334;SDS011;32051;48.882;9.210;2022-07-10T03:44:44;8.90;;;4.32;;
46334;SDS011;32051;48.882;9.210;2022-07-10T03:47:10;4.80;;;4.38;;
46334;SDS011;32051;48.882;9.210;2022-07-10T03:49:36;6.40;;;5.50;;
46334;SDS011;32051;48.882;9.210;2022-07-10T03:52:04;5.15;;;4.85;;
46334;SDS011;32051;48.882;9.210;2022-07-10T03:54:30;7.40;;;4.57;;
46334;SDS011;32051;48.882;9.210;2022-07-10T03:56:56;8.32;;;4.65;;
46334;SDS011;32051;48.882;9.210;2022-07-10T03:59:41;5.18;;;4.78;;
46334;SDS011;32051;48.882;9.210;2022-07-10T04:02:07;10.40;;;4.80;;
46334;SDS011;32051;48.882;9.210;2022-07-10T04:04:33;6.78;;;5.07;;
46334;SDS011;32051;48.882;9.210;2022-07-10T04:06:59;3.88;;;3.63;;
46334;SDS011;32051;48.882;9.210;2022-07-10T04:09:25;4.40;;;4.10;;
46334;SDS011;32051;48.882;9.210;2022-07-10T04:11:50;4.80;;;4.43;;
46334;SDS011;32051;48.882;9.210;2022-07-10T04:14:16;8.35;;;3.83;;
46334;SDS011;32051;48.882;9.210;2022-07-10T04:16:42;11.32;;;5.60;;
46334;SDS011;32051;48.882;9.210;2022-07-10T04:19:08;4.60;;;4.25;;
46334;SDS011;32051;48.882;9.210;2022-07-10T04:21:33;7.53;;;4.18;;
46334;SDS011;32051;48.882;9.210;2022-07-10T04:23:59;4.03;;;3.80;;
46334;SDS011;32051;48.882;9.210;2022-07-10T04:26:25;5.32;;;4.20;;
46334;SDS011;32051;48.882;9.210;2022-07-10T04:28:51;8.90;;;4.50;;
46334;SDS011;32051;48.882;9.210;2022-07-10T04:31:16;4.80;;;4.30;;
46334;SDS011;32051;48.882;9.210;2022-07-10T04:33:42;4.38;;;4.00;;
46334;SDS011;32051;48.882;9.210;2022-07-10T04:36:08;5.22;;;3.80;;
46334;SDS011;32051;48.882;9.210;2022-07-10T04:38:33;5.63;;;4.85;;
46334;SDS011;32051;48.882;9.210;2022-07-10T04:40:59;5.43;;;4.88;;
46334;SDS011;32051;48.882;9.210;2022-07-10T04:43:25;4.55;;;3.60;;
46334;SDS011;32051;48.882;9.210;2022-07-10T04:45:51;5.07;;;4.10;;
46334;SDS011;32051;48.882;9.210;2022-07-10T04:48:17;6.35;;;4.28;;
46334;SDS011;32051;48.882;9.210;2022-07-10T04:50:43;4.35;;;3.85;;
46334;SDS011;32051;48.882;9.210;2022-07-10T04:53:08;5.30;;;3.80;;
46334;SDS011;32051;48.882;9.210;2022-07-10T04:55:34;3.83;;;3.55;;
46334;SDS011;32051;48.882;9.210;2022-07-10T04:58:00;6.03;;;3.38;;
46334;SDS011;32051;48.882;9.210;2022-07-10T05:00:25;4.00;;;3.58;;
46334;SDS011;32051;48.882;9.210;2022-07-10T05:02:51;3.67;;;3.35;;
46334;SDS011;32051;48.882;9.210;2022-07-10T05:05:17;17.08;;;3.17;;
46334;SDS011;32051;48.882;9.210;2022-07-10T05:07:43;5.57;;;3.45;;
46334;SDS011;32051;48.882;9.210;2022-07-10T05:10:09;2.67;;;2.58;;
46334;SDS011;32051;48.882;9.210;2022-07-10T05:12:34;2.55;;;2.35;;
46334;SDS011;32051;48.882;9.210;2022-07-10T05:15:00;8.13;;;3.28;;
46334;SDS011;32051;48.882;9.210;2022-07-10T05:17:26;5.72;;;2.38;;
46334;SDS011;32051;48.882;9.210;2022-07-10T05:19:54;6.03;;;2.28;;
46334;SDS011;32051;48.882;9.210;2022-07-10T05:22:21;6.07;;;2.40;;
46334;SDS011;32051;48.882;9.210;2022-07-10T05:24:48;2.10;;;2.00;;
46334;SDS011;32051;48.882;9.210;2022-07-10T05:27:13;5.78;;;2.10;;
46334;SDS011;32051;48.882;9.210;2022-07-10T05:29:41;5.22;;;1.98;;
46334;SDS011;32051;48.882;9.210;2022-07-10T05:32:07;9.43;;;2.58;;
46334;SDS011;32051;48.882;9.210;2022-07-10T05:34:33;3.15;;;2.50;;
46334;SDS011;32051;48.882;9.210;2022-07-10T05:36:58;2.22;;;2.03;;
46334;SDS011;32051;48.882;9.210;2022-07-10T05:39:24;2.78;;;2.17;;
46334;SDS011;32051;48.882;9.210;2022-07-10T05:41:51;5.80;;;1.95;;
46334;SDS011;32051;48.882;9.210;2022-07-10T05:44:18;2.50;;;1.80;;
46334;SDS011;32051;48.882;9.210;2022-07-10T05:46:45;6.78;;;2.38;;
46334;SDS011;32051;48.882;9.210;2022-07-10T05:49:11;3.15;;;1.60;;
46334;SDS011;32051;48.882;9.210;2022-07-10T05:51:37;3.53;;;2.40;;
46334;SDS011;32051;48.882;9.210;2022-07-10T05:54:02;2.97;;;1.88;;
46334;SDS011;32051;48.882;9.210;2022-07-10T05:56:29;3.63;;;2.00;;
46334;SDS011;32051;48.882;9.210;2022-07-10T05:58:55;1.83;;;1.63;;
46334;SDS011;32051;48.882;9.210;2022-07-10T06:01:21;2.08;;;1.77;;
46334;SDS011;32051;48.882;9.210;2022-07-10T06:03:47;5.25;;;1.55;;
46334;SDS011;32051;48.882;9.210;2022-07-10T06:06:13;5.50;;;1.67;;
46334;SDS011;32051;48.882;9.210;2022-07-10T06:08:41;9.77;;;2.05;;
46334;SDS011;32051;48.882;9.210;2022-07-10T06:11:07;4.22;;;2.10;;
46334;SDS011;32051;48.882;9.210;2022-07-10T06:13:33;2.35;;;2.15;;
46334;SDS011;32051;48.882;9.210;2022-07-10T06:15:59;2.97;;;1.83;;
46334;SDS011;32051;48.882;9.210;2022-07-10T06:18:24;5.60;;;1.60;;
46334;SDS011;32051;48.882;9.210;2022-07-10T06:20:50;2.10;;;1.73;;
46334;SDS011;32051;48.882;9.210;2022-07-10T06:23:16;2.88;;;2.00;;
46334;SDS011;32051;48.882;9.210;2022-07-10T06:25:42;6.30;;;2.00;;
46334;SDS011;32051;48.882;9.210;2022-07-10T06:28:07;10.18;;;3.03;;
46334;SDS011;32051;48.882;9.210;2022-07-10T06:30:33;2.00;;;1.90;;
46334;SDS011;32051;48.882;9.210;2022-07-10T06:32:59;3.60;;;1.88;;
46334;SDS011;32051;48.882;9.210;2022-07-10T06:35:24;1.63;;;1.52;;
46334;SDS011;32051;48.882;9.210;2022-07-10T06:37:50;11.65;;;1.95;;
46334;SDS011;32051;48.882;9.210;2022-07-10T06:40:16;3.17;;;1.13;;
46334;SDS011;32051;48.882;9.210;2022-07-10T06:42:45;4.72;;;1.40;;
46334;SDS011;32051;48.882;9.210;2022-07-10T06:45:12;6.53;;;1.95;;
46334;SDS011;32051;48.882;9.210;2022-07-10T06:47:38;3.90;;;1.33;;
46334;SDS011;32051;48.882;9.210;2022-07-10T06:50:27;7.70;;;1.63;;
46334;SDS011;32051;48.882;9.210;2022-07-10T06:52:58;4.15;;;1.17;;
46334;SDS011;32051;48.882;9.210;2022-07-10T06:55:25;3.88;;;1.17;;
46334;SDS011;32051;48.882;9.210;2022-07-10T06:57:52;3.67;;;1.02;;
46334;SDS011;32051;48.882;9.210;2022-07-10T07:00:18;2.90;;;1.30;;
46334;SDS011;32051;48.882;9.210;2022-07-10T07:02:44;5.03;;;1.52;;
46334;SDS011;32051;48.882;9.210;2022-07-10T07:05:10;1.27;;;1.05;;
46334;SDS011;32051;48.882;9.210;2022-07-10T07:07:36;3.95;;;1.60;;
46334;SDS011;32051;48.882;9.210;2022-07-10T07:10:02;3.55;;;1.40;;
46334;SDS011;32051;48.882;9.210;2022-07-10T07:12:29;1.60;;;1.27;;
46334;SDS011;32051;48.882;9.210;2022-07-10T07:14:55;2.50;;;1.40;;
46334;SDS011;32051;48.882;9.210;2022-07-10T07:17:21;2.03;;;1.17;;
46334;SDS011;32051;48.882;9.210;2022-07-10T07:19:48;1.77;;;1.58;;
46334;SDS011;32051;48.882;9.210;2022-07-10T07:22:33;3.42;;;1.40;;
46334;SDS011;32051;48.882;9.210;2022-07-10T07:25:17;3.05;;;1.23;;
46334;SDS011;32051;48.882;9.210;2022-07-10T07:27:43;6.97;;;0.98;;
46334;SDS011;32051;48.882;9.210;2022-07-10T07:30:10;6.32;;;1.77;;
46334;SDS011;32051;48.882;9.210;2022-07-10T07:32:38;2.75;;;1.30;;
46334;SDS011;32051;48.882;9.210;2022-07-10T07:35:04;8.93;;;2.00;;
46334;SDS011;32051;48.882;9.210;2022-07-10T07:37:41;1.27;;;1.02;;
46334;SDS011;32051;48.882;9.210;2022-07-10T07:40:09;3.42;;;1.08;;
46334;SDS011;32051;48.882;9.210;2022-07-10T07:42:36;2.70;;;1.27;;
46334;SDS011;32051;48.882;9.210;2022-07-10T07:45:02;1.48;;;0.90;;
46334;SDS011;32051;48.882;9.210;2022-07-10T07:47:29;2.33;;;1.10;;
46334;SDS011;32051;48.882;9.210;2022-07-10T07:49:56;4.57;;;0.77;;
46334;SDS011;32051;48.882;9.210;2022-07-10T07:52:26;2.08;;;1.38;;
46334;SDS011;32051;48.882;9.210;2022-07-10T07:54:52;3.53;;;1.17;;
46334;SDS011;32051;48.882;9.210;2022-07-10T07:57:17;2.25;;;1.42;;
46334;SDS011;32051;48.882;9.210;2022-07-10T07:59:43;0.85;;;0.60;;
46334;SDS011;32051;48.882;9.210;2022-07-10T08:02:09;7.95;;;2.50;;
46334;SDS011;32051;48.882;9.210;2022-07-10T08:04:35;0.70;;;0.70;;
46334;SDS011;32051;48.882;9.210;2022-07-10T08:07:00;1.05;;;0.80;;
46334;SDS011;32051;48.882;9.210;2022-07-10T08:09:27;4.55;;;0.93;;
46334;SDS011;32051;48.882;9.210;2022-07-10T08:11:53;1.27;;;1.05;;
46334;SDS011;32051;48.882;9.210;2022-07-10T08:14:19;1.50;;;1.40;;
46334;SDS011;32051;48.882;9.210;2022-07-10T08:16:45;2.30;;;1.23;;
46334;SDS011;32051;48.882;9.210;2022-07-10T08:19:11;6.28;;;1.00;;
46334;SDS011;32051;48.882;9.210;2022-07-10T08:21:37;4.03;;;1.08;;
46334;SDS011;32051;48.882;9.210;2022-07-10T08:24:03;2.13;;;0.98;;
46334;SDS011;32051;48.882;9.210;2022-07-10T08:26:30;1.15;;;0.88;;
46334;SDS011;32051;48.882;9.210;2022-07-10T08:28:56;4.72;;;0.90;;
46334;SDS011;32051;48.882;9.210;2022-07-10T08:31:22;1.85;;;0.82;;
46334;SDS011;32051;48.882;9.210;2022-07-10T08:33:48;2.53;;;1.30;;
46334;SDS011;32051;48.882;9.210;2022-07-10T08:36:16;1.30;;;0.80;;
46334;SDS011;32051;48.882;9.210;2022-07-10T08:38:42;3.95;;;1.30;;
46334;SDS011;32051;48.882;9.210;2022-07-10T08:41:08;3.45;;;0.60;;
46334;SDS011;32051;48.882;9.210;2022-07-10T08:43:36;2.17;;;0.82;;
46334;SDS011;32051;48.882;9.210;2022-07-10T08:46:02;1.33;;;1.00;;
46334;SDS011;32051;48.882;9.210;2022-07-10T08:48:31;2.63;;;1.05;;
46334;SDS011;32051;48.882;9.210;2022-07-10T08:51:02;3.17;;;1.13;;
46334;SDS011;32051;48.882;9.210;2022-07-10T08:53:31;3.47;;;0.90;;
46334;SDS011;32051;48.882;9.210;2022-07-10T08:55:58;1.85;;;0.60;;
46334;SDS011;32051;48.882;9.210;2022-07-10T08:58:24;4.63;;;1.73;;
46334;SDS011;32051;48.882;9.210;2022-07-10T09:00:52;2.38;;;0.98;;
46334;SDS011;32051;48.882;9.210;2022-07-10T09:03:18;1.38;;;1.02;;
46334;SDS011;32051;48.882;9.210;2022-07-10T09:05:44;3.15;;;0.95;;
46334;SDS011;32051;48.882;9.210;2022-07-10T09:08:24;14.45;;;1.35;;
46334;SDS011;32051;48.882;9.210;2022-07-10T09:10:59;12.90;;;1.52;;
46334;SDS011;32051;48.882;9.210;2022-07-10T09:13:51;2.70;;;0.82;;
46334;SDS011;32051;48.882;9.210;2022-07-10T09:16:24;2.50;;;1.10;;
46334;SDS011;32051;48.882;9.210;2022-07-10T09:18:50;1.58;;;0.68;;
46334;SDS011;32051;48.882;9.210;2022-07-10T09:21:16;2.13;;;0.90;;
46334;SDS011;32051;48.882;9.210;2022-07-10T09:23:42;0.70;;;0.68;;
46334;SDS011;32051;48.882;9.210;2022-07-10T09:26:08;5.90;;;1.38;;
46334;SDS011;32051;48.882;9.210;2022-07-10T09:28:34;1.83;;;0.57;;
46334;SDS011;32051;48.882;9.210;2022-07-10T09:31:00;1.42;;;0.60;;
46334;SDS011;32051;48.882;9.210;2022-07-10T09:33:27;1.02;;;0.45;;
46334;SDS011;32051;48.882;9.210;2022-07-10T09:46:23;3.00;;;0.50;;
46334;SDS011;32051;48.882;9.210;2022-07-10T09:51:29;1.05;;;0.75;;
46334;SDS011;32051;48.882;9.210;2022-07-10T09:53:56;3.40;;;1.45;;
46334;SDS011;32051;48.882;9.210;2022-07-10T09:56:25;2.75;;;0.70;;
46334;SDS011;32051;48.882;9.210;2022-07-10T09:58:52;0.85;;;0.57;;
46334;SDS011;32051;48.882;9.210;2022-07-10T10:01:18;0.73;;;0.60;;
46334;SDS011;32051;48.882;9.210;2022-07-10T10:03:45;2.28;;;0.50;;
46334;SDS011;32051;48.882;9.210;2022-07-10T10:06:14;3.75;;;0.55;;
46334;SDS011;32051;48.882;9.210;2022-07-10T10:11:26;1.52;;;0.73;;
46334;SDS011;32051;48.882;9.210;2022-07-10T10:13:53;4.95;;;0.93;;
46334;SDS011;32051;48.882;9.210;2022-07-10T10:16:19;3.95;;;1.02;;
46334;SDS011;32051;48.882;9.210;2022-07-10T10:18:45;0.55;;;0.55;;
46334;SDS011;32051;48.882;9.210;2022-07-10T10:21:30;0.63;;;0.60;;
46334;SDS011;32051;48.882;9.210;2022-07-10T10:23:56;2.72;;;0.65;;
46334;SDS011;32051;48.882;9.210;2022-07-10T10:26:22;3.78;;;0.75;;
46334;SDS011;32051;48.882;9.210;2022-07-10T10:28:52;13.25;;;1.73;;
46334;SDS011;32051;48.882;9.210;2022-07-10T10:31:20;1.88;;;0.70;;
46334;SDS011;32051;48.882;9.210;2022-07-10T10:33:46;0.85;;;0.60;;
46334;SDS011;32051;48.882;9.210;2022-07-10T10:39:01;3.45;;;0.90;;
46334;SDS011;32051;48.882;9.210;2022-07-10T10:41:36;1.17;;;0.68;;
46334;SDS011;32051;48.882;9.210;2022-07-10T10:46:52;2.38;;;0.75;;
46334;SDS011;32051;48.882;9.210;2022-07-10T10:49:19;0.57;;;0.50;;
46334;SDS011;32051;48.882;9.210;2022-07-10T10:51:58;1.20;;;0.70;;
46334;SDS011;32051;48.882;9.210;2022-07-10T10:54:25;1.60;;;1.48;;
46334;SDS011;32051;48.882;9.210;2022-07-10T11:02:20;2.13;;;0.73;;
46334;SDS011;32051;48.882;9.210;2022-07-10T11:04:49;3.92;;;0.82;;
46334;SDS011;32051;48.882;9.210;2022-07-10T11:10:32;1.80;;;1.05;;
46334;SDS011;32051;48.882;9.210;2022-07-10T11:13:00;0.93;;;0.57;;
46334;SDS011;32051;48.882;9.210;2022-07-10T11:15:27;2.38;;;0.88;;
46334;SDS011;32051;48.882;9.210;2022-07-10T11:18:19;5.32;;;0.63;;
46334;SDS011;32051;48.882;9.210;2022-07-10T11:20:51;2.80;;;0.68;;
46334;SDS011;32051;48.882;9.210;2022-07-10T11:26:05;4.05;;;1.58;;
46334;SDS011;32051;48.882;9.210;2022-07-10T11:28:55;1.85;;;0.65;;
46334;SDS011;32051;48.882;9.210;2022-07-10T11:31:22;9.57;;;1.17;;
46334;SDS011;32051;48.882;9.210;2022-07-10T11:33:55;3.70;;;1.52;;
46334;SDS011;32051;48.882;9.210;2022-07-10T11:38:58;2.72;;;1.23;;
46334;SDS011;32051;48.882;9.210;2022-07-10T11:41:25;2.67;;;1.83;;
46334;SDS011;32051;48.882;9.210;2022-07-10T11:44:01;2.17;;;0.57;;
46334;SDS011;32051;48.882;9.210;2022-07-10T11:46:29;3.10;;;0.98;;
46334;SDS011;32051;48.882;9.210;2022-07-10T11:48:56;8.63;;;0.85;;
46334;SDS011;32051;48.882;9.210;2022-07-10T11:53:57;1.90;;;1.00;;
46334;SDS011;32051;48.882;9.210;2022-07-10T11:56:23;11.23;;;0.90;;
46334;SDS011;32051;48.882;9.210;2022-07-10T11:58:54;3.45;;;1.08;;
46334;SDS011;32051;48.882;9.210;2022-07-10T12:01:20;5.22;;;0.90;;
46334;SDS011;32051;48.882;9.210;2022-07-10T12:03:56;2.13;;;0.55;;
46334;SDS011;32051;48.882;9.210;2022-07-10T12:06:24;0.90;;;0.50;;
46334;SDS011;32051;48.882;9.210;2022-07-10T12:08:50;2.35;;;0.70;;
46334;SDS011;32051;48.882;9.210;2022-07-10T12:11:16;5.63;;;0.98;;
46334;SDS011;32051;48.882;9.210;2022-07-10T12:13:44;2.42;;;1.02;;
46334;SDS011;32051;48.882;9.210;2022-07-10T12:16:10;2.25;;;0.70;;
46334;SDS011;32051;48.882;9.210;2022-07-10T12:18:36;1.33;;;0.52;;
46334;SDS011;32051;48.882;9.210;2022-07-10T12:21:03;5.13;;;0.63;;
46334;SDS011;32051;48.882;9.210;2022-07-10T12:23:30;0.63;;;0.57;;
46334;SDS011;32051;48.882;9.210;2022-07-10T12:25:56;2.63;;;0.82;;
46334;SDS011;32051;48.882;9.210;2022-07-10T12:28:22;1.92;;;0.65;;
46334;SDS011;32051;48.882;9.210;2022-07-10T12:30:49;1.95;;;0.70;;
46334;SDS011;32051;48.882;9.210;2022-07-10T12:33:23;1.45;;;0.73;;
46334;SDS011;32051;48.882;9.210;2022-07-10T12:35:50;3.40;;;0.68;;
46334;SDS011;32051;48.882;9.210;2022-07-10T12:38:26;2.65;;;0.60;;
46334;SDS011;32051;48.882;9.210;2022-07-10T12:41:06;4.22;;;0.47;;
46334;SDS011;32051;48.882;9.210;2022-07-10T12:43:34;1.20;;;1.02;;
46334;SDS011;32051;48.882;9.210;2022-07-10T12:48:41;1.45;;;0.30;;
46334;SDS011;32051;48.882;9.210;2022-07-10T12:51:26;1.92;;;0.60;;
46334;SDS011;32051;48.882;9.210;2022-07-10T12:53:54;1.15;;;0.35;;
46334;SDS011;32051;48.882;9.210;2022-07-10T12:56:30;1.75;;;0.50;;
46334;SDS011;32051;48.882;9.210;2022-07-10T12:59:13;1.98;;;0.70;;
46334;SDS011;32051;48.882;9.210;2022-07-10T13:01:45;3.25;;;0.55;;
46334;SDS011;32051;48.882;9.210;2022-07-10T13:04:11;4.72;;;0.63;;
46334;SDS011;32051;48.882;9.210;2022-07-10T13:06:37;3.08;;;0.50;;
46334;SDS011;32051;48.882;9.210;2022-07-10T13:09:20;2.13;;;0.40;;
46334;SDS011;32051;48.882;9.210;2022-07-10T13:11:50;1.98;;;0.50;;
46334;SDS011;32051;48.882;9.210;2022-07-10T13:14:17;1.20;;;0.50;;
46334;SDS011;32051;48.882;9.210;2022-07-10T13:16:44;1.35;;;0.40;;
46334;SDS011;32051;48.882;9.210;2022-07-10T13:19:10;2.50;;;1.05;;
46334;SDS011;32051;48.882;9.210;2022-07-10T13:21:36;5.60;;;0.80;;
46334;SDS011;32051;48.882;9.210;2022-07-10T13:24:02;2.92;;;0.88;;
46334;SDS011;32051;48.882;9.210;2022-07-10T13:26:29;2.10;;;0.95;;
46334;SDS011;32051;48.882;9.210;2022-07-10T13:28:55;3.05;;;0.98;;
46334;SDS011;32051;48.882;9.210;2022-07-10T13:31:22;3.33;;;0.30;;
46334;SDS011;32051;48.882;9.210;2022-07-10T13:33:47;2.42;;;0.55;;
46334;SDS011;32051;48.882;9.210;2022-07-10T13:36:13;0.68;;;0.40;;
46334;SDS011;32051;48.882;9.210;2022-07-10T13:38:39;3.08;;;0.80;;
46334;SDS011;32051;48.882;9.210;2022-07-10T13:41:07;3.58;;;0.75;;
46334;SDS011;32051;48.882;9.210;2022-07-10T13:43:33;1.50;;;0.43;;
46334;SDS011;32051;48.882;9.210;2022-07-10T13:46:00;2.05;;;0.73;;
46334;SDS011;32051;48.882;9.210;2022-07-10T13:48:26;0.40;;;0.40;;
46334;SDS011;32051;48.882;9.210;2022-07-10T13:50:53;1.23;;;0.52;;
46334;SDS011;32051;48.882;9.210;2022-07-10T13:53:18;0.88;;;0.40;;
46334;SDS011;32051;48.882;9.210;2022-07-10T13:55:45;2.22;;;0.47;;
46334;SDS011;32051;48.882;9.210;2022-07-10T13:58:11;1.45;;;0.40;;
46334;SDS011;32051;48.882;9.210;2022-07-10T14:00:38;0.70;;;0.38;;
46334;SDS011;32051;48.882;9.210;2022-07-10T14:03:04;2.08;;;0.40;;
46334;SDS011;32051;48.882;9.210;2022-07-10T14:05:30;5.50;;;0.68;;
46334;SDS011;32051;48.882;9.210;2022-07-10T14:07:57;4.10;;;0.52;;
46334;SDS011;32051;48.882;9.210;2022-07-10T14:10:23;0.82;;;0.45;;
46334;SDS011;32051;48.882;9.210;2022-07-10T14:12:50;6.45;;;0.50;;
46334;SDS011;32051;48.882;9.210;2022-07-10T14:15:17;4.60;;;0.50;;
46334;SDS011;32051;48.882;9.210;2022-07-10T14:17:43;1.33;;;0.45;;
46334;SDS011;32051;48.882;9.210;2022-07-10T14:20:10;0.77;;;0.70;;
46334;SDS011;32051;48.882;9.210;2022-07-10T14:22:36;0.85;;;0.40;;
46334;SDS011;32051;48.882;9.210;2022-07-10T14:25:03;2.55;;;0.50;;
46334;SDS011;32051;48.882;9.210;2022-07-10T14:27:29;4.65;;;0.93;;
46334;SDS011;32051;48.882;9.210;2022-07-10T14:29:57;0.93;;;0.30;;
46334;SDS011;32051;48.882;9.210;2022-07-10T14:32:23;2.25;;;0.40;;
46334;SDS011;32051;48.882;9.210;2022-07-10T14:34:49;2.00;;;0.47;;
46334;SDS011;32051;48.882;9.210;2022-07-10T14:37:15;1.10;;;0.43;;
46334;SDS011;32051;48.882;9.210;2022-07-10T14:39:41;1.58;;;0.30;;
46334;SDS011;32051;48.882;9.210;2022-07-10T14:42:08;2.53;;;0.40;;
46334;SDS011;32051;48.882;9.210;2022-07-10T14:44:37;0.63;;;0.30;;
46334;SDS011;32051;48.882;9.210;2022-07-10T14:47:03;3.92;;;1.90;;
46334;SDS011;32051;48.882;9.210;2022-07-10T14:49:29;2.85;;;2.00;;
46334;SDS011;32051;48.882;9.210;2022-07-10T14:51:54;1.27;;;1.17;;
46334;SDS011;32051;48.882;9.210;2022-07-10T14:54:20;8.73;;;3.63;;
46334;SDS011;32051;48.882;9.210;2022-07-10T14:56:46;3.45;;;0.63;;
46334;SDS011;32051;48.882;9.210;2022-07-10T14:59:12;2.85;;;1.17;;
46334;SDS011;32051;48.882;9.210;2022-07-10T15:01:38;3.45;;;3.15;;
46334;SDS011;32051;48.882;9.210;2022-07-10T15:04:04;3.17;;;0.77;;
46334;SDS011;32051;48.882;9.210;2022-07-10T15:06:30;3.35;;;2.78;;
46334;SDS011;32051;48.882;9.210;2022-07-10T15:08:56;1.83;;;0.50;;
46334;SDS011;32051;48.882;9.210;2022-07-10T15:11:22;0.65;;;0.38;;
46334;SDS011;32051;48.882;9.210;2022-07-10T15:13:48;0.68;;;0.40;;
46334;SDS011;32051;48.882;9.210;2022-07-10T15:16:16;4.82;;;0.85;;
46334;SDS011;32051;48.882;9.210;2022-07-10T15:18:42;1.58;;;0.50;;
46334;SDS011;32051;48.882;9.210;2022-07-10T15:21:09;4.38;;;0.80;;
46334;SDS011;32051;48.882;9.210;2022-07-10T15:23:36;1.48;;;0.40;;
46334;SDS011;32051;48.882;9.210;2022-07-10T15:26:02;0.60;;;0.60;;
46334;SDS011;32051;48.882;9.210;2022-07-10T15:28:29;3.38;;;0.68;;
46334;SDS011;32051;48.882;9.210;2022-07-10T15:30:55;2.33;;;0.63;;